2009 GAEL (2009032S15071)


On this page: IBTrACS data - Map and Plots - Positions - Intensities - Original source data

Summary

Start Jan 31
End Feb 12
Basin SI
LMI 120 kt
Sources jtwc_sh
reunion
In WMO? Yes
Previous storm 2009 ELLIE (SP)
Previous in basin 2009 DOMINIC (SI)
Concurrent storms 2009 ELLIE (SP)
2009 GAEL (SI)
2009 FREDDY (SI)
Next in basin 2009 FREDDY (SI)
Next storm 2009 FREDDY (SI)

top of page IBTrACS Data: File Access

No storm imagery available

top of page Plots:

Map of storm track will not appear if FTP is down
Time series of cyclone Maximum Sustained Wind will not appear if FTP is down
Time series of cyclone Minimum Central Pressure will not appear if FTP is down

top of page Track Data:Position

jtwc_sh reunion
Date Lat Lon Lat Lon
2009-01-31 18:00:00 -14.7 70.6
2009-02-01 00:00:00 -14.9 70.1
2009-02-01 06:00:00 -14.7 70.1 -14.8 70.8
2009-02-01 12:00:00 -15.1 70.4 -15.1 70.4
2009-02-01 18:00:00 -15.2 69.5 -15.3 69.8
2009-02-02 00:00:00 -14.9 68.6 -15.4 68.9
2009-02-02 06:00:00 -15.6 68.1 -15.6 68.2
2009-02-02 12:00:00 -16.0 67.3 -15.9 67.2
2009-02-02 18:00:00 -16.0 66.4 -16.2 66.4
2009-02-03 00:00:00 -16.2 65.6 -16.5 65.8
2009-02-03 06:00:00 -17.3 64.9 -17.0 64.8
2009-02-03 12:00:00 -17.5 63.6 -17.6 63.5
2009-02-03 18:00:00 -17.6 62.7 -17.7 62.7
2009-02-04 00:00:00 -17.7 61.9 -17.7 61.6
2009-02-04 06:00:00 -17.8 61.1 -17.9 60.8
2009-02-04 12:00:00 -17.8 60.2 -18.0 60.1
2009-02-04 18:00:00 -18.0 59.4 -18.0 59.3
2009-02-05 00:00:00 -18.1 58.5 -18.0 58.0
2009-02-05 06:00:00 -18.2 57.3 -18.2 57.3
2009-02-05 12:00:00 -18.3 56.1 -18.2 56.0
2009-02-05 18:00:00 -18.4 55.1 -18.2 55.1
2009-02-06 00:00:00 -18.5 54.2 -18.4 54.0
2009-02-06 06:00:00 -18.5 53.3 -18.5 53.1
2009-02-06 12:00:00 -18.7 52.6 -18.6 52.7
2009-02-06 18:00:00 -19.2 52.3 -19.2 52.2
jtwc_sh reunion
2009-02-07 00:00:00 -19.6 51.8 -19.5 51.8
2009-02-07 06:00:00 -20.0 51.7 -20.1 51.7
2009-02-07 12:00:00 -20.6 51.9 -20.6 51.9
2009-02-07 18:00:00 -21.2 52.1 -21.2 52.1
2009-02-08 00:00:00 -21.9 52.5 -21.9 52.5
2009-02-08 06:00:00 -22.9 53.0 -23.0 52.8
2009-02-08 12:00:00 -24.2 53.3 -24.3 53.3
2009-02-08 18:00:00 -25.5 54.0 -25.6 54.2
2009-02-09 00:00:00 -26.9 55.1 -26.9 55.1
2009-02-09 06:00:00 -28.2 56.4 -28.3 56.2
2009-02-09 12:00:00 -29.8 58.0 -29.8 57.9
2009-02-09 18:00:00 -30.9 59.4 -30.8 59.4
2009-02-10 00:00:00 -31.5 60.5 -31.5 60.7
2009-02-10 06:00:00 -31.9 61.6 -32.0 61.7
2009-02-10 12:00:00 -32.3 62.8 -32.1 62.9
2009-02-10 18:00:00 -32.0 64.1 -32.2 64.0
2009-02-11 00:00:00 -32.2 65.1 -32.4 64.9
2009-02-11 06:00:00 -32.8 65.8
2009-02-11 12:00:00 -33.6 66.7
2009-02-11 18:00:00 -34.5 67.4
2009-02-12 00:00:00 -35.5 68.1
2009-02-12 06:00:00 -36.5 68.9
2009-02-12 12:00:00 -37.6 70.4

top of pageTrack Data:Intensity

jtwc_sh reunion
Date Wind Pres Wind Pres
2009-01-31 18:00:00 20. 1007.
2009-02-01 00:00:00 20. 1007.
2009-02-01 06:00:00 20. 1007. 20. 1006.
2009-02-01 12:00:00 20. 1007. 20. 1005.
2009-02-01 18:00:00 25. 1004. 20. 1005.
2009-02-02 00:00:00 25. 1004. 20. 1004.
2009-02-02 06:00:00 25. 1004. 23. 1003.
2009-02-02 12:00:00 25. 1004. 25. 1002.
2009-02-02 18:00:00 35. 996. 30. 999.
2009-02-03 00:00:00 35. 996. 33. 997.
2009-02-03 06:00:00 35. 996. 33. 997.
2009-02-03 12:00:00 35. 996. 30. 998.
2009-02-03 18:00:00 35. 996. 30. 998.
2009-02-04 00:00:00 35. 996. 35. 995.
2009-02-04 06:00:00 40. 993. 37. 994.
2009-02-04 12:00:00 45. 989. 40. 992.
2009-02-04 18:00:00 50. 985. 42. 990.
2009-02-05 00:00:00 55. 982. 45. 987.
2009-02-05 06:00:00 55. 982. 50. 984.
2009-02-05 12:00:00 60. 978. 55. 980.
2009-02-05 18:00:00 70. 970. 60. 975.
2009-02-06 00:00:00 75. 967. 65. 970.
2009-02-06 06:00:00 90. 956. 75. 960.
2009-02-06 12:00:00 100. 948. 85. 948.
2009-02-06 18:00:00 105. 944. 90. 942.
jtwc_sh reunion
2009-02-07 00:00:00 120. 933. 100. 930.
2009-02-07 06:00:00 115. 937. 100. 930.
2009-02-07 12:00:00 105. 944. 95. 935.
2009-02-07 18:00:00 105. 944. 90. 940.
2009-02-08 00:00:00 105. 944. 90. 940.
2009-02-08 06:00:00 105. 944. 90. 940.
2009-02-08 12:00:00 105. 944. 85. 947.
2009-02-08 18:00:00 105. 944. 85. 947.
2009-02-09 00:00:00 100. 948. 85. 948.
2009-02-09 06:00:00 95. 952. 80. 955.
2009-02-09 12:00:00 85. 959. 75. 960.
2009-02-09 18:00:00 65. 974. 65. 972.
2009-02-10 00:00:00 65. 974. 62. 980.
2009-02-10 06:00:00 40. 993. 58. 986.
2009-02-10 12:00:00 40. 993. 57. 988.
2009-02-10 18:00:00 40. 993. 55. 989.
2009-02-11 00:00:00 30. 1000. 50. 991.
2009-02-11 06:00:00 45. 993.
2009-02-11 12:00:00 37. 996.
2009-02-11 18:00:00 33. 998.
2009-02-12 00:00:00 30. 999.
2009-02-12 06:00:00 27. 1000.
2009-02-12 12:00:00 25. 1002.

top of page Links to source data

Source Source file Format
jtwc_sh bsh132009.txt ATCF
reunion Best-Tracks-NewWMOFormat.txt:Line=2654:GAEL WMO (old format)